Time;durP1;ratioP1;P1;durP2;ratioP2;P2;SDS_P1;SDS_P2;PMS_P1;PMS_P2;Temp;Humidity;BMP_temperature;BMP_pressure;BME280_temperature;BME280_humidity;BME280_pressure;Samples;Min_cycle;Max_cycle;Signal;HPM_P1;HPM_P2
2022/06/15 00:02:12;;;;;;;1.50;1.20;;;18.90;74.60;;;;;;4967333;28;20047;-87
2022/06/15 00:04:38;;;;;;;2.95;1.20;;;18.90;74.80;;;;;;4952375;28;20042;-87
2022/06/15 00:07:04;;;;;;;2.70;1.40;;;18.90;75.00;;;;;;4963161;28;20426;-84
2022/06/15 00:09:30;;;;;;;4.00;1.30;;;18.90;75.20;;;;;;4963949;28;20589;-87
2022/06/15 00:11:56;;;;;;;3.05;1.42;;;18.80;75.00;;;;;;4966546;28;20042;-87
2022/06/15 00:14:26;;;;;;;3.20;1.80;;;18.70;75.10;;;;;;4964569;28;20043;-84
2022/06/15 00:16:52;;;;;;;3.63;1.27;;;18.60;75.30;;;;;;4961658;28;20027;-85
2022/06/15 00:19:19;;;;;;;5.07;1.52;;;18.50;75.80;;;;;;4963257;28;20054;-87
2022/06/15 00:21:45;;;;;;;2.40;1.42;;;18.60;76.20;;;;;;4965127;28;20050;-87
2022/06/15 00:24:11;;;;;;;1.73;1.40;;;18.50;76.00;;;;;;4965593;28;20463;-90
2022/06/15 00:26:38;;;;;;;3.60;1.40;;;18.60;76.40;;;;;;4962975;28;20378;-87
2022/06/15 00:29:05;;;;;;;3.47;1.58;;;18.50;75.90;;;;;;4966186;28;20134;-85
2022/06/15 00:31:31;;;;;;;2.13;1.60;;;18.50;75.80;;;;;;4947075;28;20034;-86
2022/06/15 00:33:57;;;;;;;3.67;1.58;;;18.60;76.10;;;;;;4963494;28;20057;-85
2022/06/15 00:36:23;;;;;;;2.15;1.20;;;18.60;75.90;;;;;;4967533;28;20493;-80
2022/06/15 00:38:53;;;;;;;2.53;1.60;;;18.60;75.80;;;;;;4967803;28;20050;-87
2022/06/15 00:41:27;;;;;;;1.80;1.13;;;18.60;75.70;;;;;;4951624;28;20027;-86
2022/06/15 00:43:58;;;;;;;2.03;1.65;;;18.60;75.00;;;;;;4953002;28;20086;-85
2022/06/15 00:46:31;;;;;;;1.50;1.35;;;18.50;74.50;;;;;;4951610;28;20046;-82
2022/06/15 00:49:11;;;;;;;2.25;1.42;;;18.50;74.80;;;;;;4960597;28;20035;-84
2022/06/15 00:51:40;;;;;;;1.42;1.33;;;18.40;74.70;;;;;;4949069;28;20563;-84
2022/06/15 00:54:07;;;;;;;2.22;1.10;;;18.40;74.90;;;;;;4963023;28;20042;-84
2022/06/15 00:56:36;;;;;;;1.40;1.30;;;18.40;75.00;;;;;;4962228;28;20394;-82
2022/06/15 00:59:12;;;;;;;3.33;1.63;;;18.30;74.90;;;;;;4950641;28;20438;-83
2022/06/15 01:01:38;;;;;;;4.32;1.52;;;18.20;75.00;;;;;;4961528;28;20453;-88
2022/06/15 01:04:05;;;;;;;3.15;1.40;;;18.20;75.40;;;;;;4967041;28;20490;-84
2022/06/15 01:06:57;;;;;;;5.00;1.65;;;18.20;75.40;;;;;;4960950;28;20485;-85
2022/06/15 01:09:26;;;;;;;2.05;1.42;;;18.00;75.60;;;;;;4964227;28;20146;-86
2022/06/15 01:12:33;;;;;;;2.63;1.60;;;18.10;76.10;;;;;;4962830;28;20126;-84
2022/06/15 01:15:15;;;;;;;4.63;1.80;;;18.00;76.20;;;;;;4935466;28;20672;-82
2022/06/15 01:18:20;;;;;;;4.25;1.80;;;18.00;76.10;;;;;;4963989;28;20177;-85
2022/06/15 01:20:52;;;;;;;3.30;1.67;;;18.00;76.00;;;;;;4961819;28;20071;-82
2022/06/15 01:24:00;;;;;;;2.90;1.63;;;18.00;76.20;;;;;;4933672;28;20513;-82
2022/06/15 01:26:29;;;;;;;3.17;1.42;;;18.00;75.90;;;;;;4958854;28;20039;-82
2022/06/15 01:29:05;;;;;;;1.85;1.45;;;18.00;76.20;;;;;;4966833;28;20035;-87
2022/06/15 01:31:41;;;;;;;2.65;1.70;;;18.20;76.00;;;;;;4961635;28;20039;-86
2022/06/15 01:34:25;;;;;;;2.38;1.73;;;18.20;75.90;;;;;;4961209;28;20043;-87
2022/06/15 01:37:09;;;;;;;3.72;1.40;;;18.20;76.10;;;;;;4963710;28;20612;-82
2022/06/15 01:40:05;;;;;;;2.78;1.30;;;18.30;75.80;;;;;;4963349;28;20066;-83
2022/06/15 01:42:43;;;;;;;3.13;1.50;;;18.40;75.60;;;;;;4966103;28;20038;-83
2022/06/15 01:45:16;;;;;;;4.70;1.70;;;18.50;76.00;;;;;;4944189;28;20027;-82
2022/06/15 01:47:45;;;;;;;3.28;1.73;;;18.40;75.40;;;;;;4946467;28;20031;-80
2022/06/15 01:50:17;;;;;;;2.40;1.23;;;18.40;75.70;;;;;;4948505;28;20036;-82
2022/06/15 01:52:49;;;;;;;4.85;1.70;;;18.20;75.30;;;;;;4964508;28;20052;-82
2022/06/15 01:55:23;;;;;;;2.75;1.30;;;18.10;75.50;;;;;;4965655;28;20122;-83
2022/06/15 01:57:56;;;;;;;5.35;1.52;;;18.10;75.90;;;;;;4934010;28;20042;-81
2022/06/15 02:00:23;;;;;;;4.00;1.42;;;18.10;75.90;;;;;;4960542;28;20042;-81
2022/06/15 02:03:11;;;;;;;2.08;1.77;;;18.10;76.10;;;;;;4950711;28;20113;-81
2022/06/15 02:05:59;;;;;;;3.40;1.45;;;18.10;75.80;;;;;;4944850;28;20046;-84
2022/06/15 02:08:48;;;;;;;5.50;2.03;;;18.00;75.80;;;;;;4961071;28;20050;-81
2022/06/15 02:11:19;;;;;;;4.75;1.90;;;18.10;76.00;;;;;;4960993;28;20074;-80
2022/06/15 02:14:12;;;;;;;4.90;1.80;;;18.10;76.20;;;;;;4949632;28;20039;-79
2022/06/15 02:16:51;;;;;;;4.47;1.80;;;18.20;76.00;;;;;;4975121;28;20093;-81
2022/06/15 02:19:33;;;;;;;2.97;1.63;;;18.30;75.00;;;;;;4962080;28;20157;-81
2022/06/15 02:22:04;;;;;;;4.25;1.83;;;18.40;74.80;;;;;;4960827;28;20047;-82
2022/06/15 02:24:33;;;;;;;2.03;1.52;;;18.60;75.10;;;;;;4964625;28;20039;-82
2022/06/15 02:27:00;;;;;;;5.20;1.70;;;18.80;75.10;;;;;;4960674;28;20071;-80
2022/06/15 02:29:29;;;;;;;3.47;1.60;;;19.00;73.60;;;;;;4932886;28;20028;-80
2022/06/15 02:31:57;;;;;;;2.42;1.20;;;19.00;73.20;;;;;;4958360;28;20035;-80
2022/06/15 02:34:25;;;;;;;1.40;1.30;;;19.20;73.10;;;;;;4962197;28;20188;-80
2022/06/15 02:36:52;;;;;;;3.17;1.40;;;19.30;73.00;;;;;;4927966;28;20039;-79
2022/06/15 02:39:21;;;;;;;1.70;1.30;;;19.30;71.60;;;;;;4961473;28;20038;-79
2022/06/15 02:42:01;;;;;;;4.15;1.33;;;19.50;71.50;;;;;;4935020;28;20401;-79
2022/06/15 02:44:33;;;;;;;4.88;1.70;;;19.60;70.40;;;;;;4960562;28;20133;-79
2022/06/15 02:46:59;;;;;;;5.28;1.30;;;19.50;70.00;;;;;;4947811;28;20453;-80
2022/06/15 02:49:26;;;;;;;3.03;1.15;;;19.50;69.60;;;;;;4928235;28;20063;-80
2022/06/15 02:52:03;;;;;;;2.88;1.23;;;19.40;68.80;;;;;;4943159;28;20085;-79
2022/06/15 02:54:39;;;;;;;4.20;1.55;;;19.30;69.80;;;;;;4962837;28;20117;-79
2022/06/15 02:57:21;;;;;;;2.17;1.48;;;19.50;70.00;;;;;;4963660;28;20126;-79
2022/06/15 02:59:48;;;;;;;2.15;1.33;;;19.70;70.30;;;;;;4950010;28;20038;-80
2022/06/15 03:02:17;;;;;;;2.20;1.45;;;19.80;69.80;;;;;;4960477;28;20454;-80
2022/06/15 03:04:47;;;;;;;3.20;1.60;;;20.00;69.50;;;;;;4949998;28;20561;-80
2022/06/15 03:07:16;;;;;;;2.67;1.35;;;20.10;68.40;;;;;;4977423;28;20039;-81
2022/06/15 03:09:42;;;;;;;2.00;1.42;;;20.00;68.10;;;;;;4960294;28;20411;-82
2022/06/15 03:12:10;;;;;;;4.82;1.58;;;19.80;67.00;;;;;;4961409;28;20035;-81
2022/06/15 03:14:38;;;;;;;2.22;1.40;;;19.80;68.40;;;;;;4964365;28;20042;-82
2022/06/15 03:17:09;;;;;;;2.72;1.30;;;19.90;68.50;;;;;;4961732;28;20145;-82
2022/06/15 03:19:58;;;;;;;3.05;1.48;;;20.00;67.70;;;;;;4962008;28;20063;-82
2022/06/15 03:22:26;;;;;;;1.77;1.10;;;20.10;67.60;;;;;;4962736;28;20043;-81
2022/06/15 03:24:56;;;;;;;4.22;1.40;;;20.10;66.40;;;;;;4944448;28;20039;-81
2022/06/15 03:27:22;;;;;;;3.92;1.73;;;20.30;66.80;;;;;;4963236;28;20035;-80
2022/06/15 03:29:50;;;;;;;4.38;1.40;;;20.30;66.30;;;;;;4963622;28;20046;-82
2022/06/15 03:32:18;;;;;;;5.35;1.40;;;20.40;66.40;;;;;;4965093;28;20035;-80
2022/06/15 03:34:56;;;;;;;4.95;1.30;;;20.60;65.90;;;;;;4951471;28;20118;-82
2022/06/15 03:37:22;;;;;;;1.65;0.98;;;20.70;65.60;;;;;;4963397;28;20573;-82
2022/06/15 03:39:50;;;;;;;2.33;1.20;;;20.70;64.60;;;;;;4966764;28;20035;-81
2022/06/15 03:42:20;;;;;;;4.28;1.27;;;20.70;64.60;;;;;;4947485;28;20073;-81
2022/06/15 03:44:47;;;;;;;2.72;1.40;;;20.80;64.40;;;;;;4965648;28;20055;-81
2022/06/15 03:47:20;;;;;;;5.22;1.17;;;21.00;65.20;;;;;;4947280;28;20126;-80
2022/06/15 03:49:48;;;;;;;3.33;1.27;;;21.20;64.40;;;;;;4947198;28;20514;-81
2022/06/15 03:52:16;;;;;;;3.60;1.08;;;21.40;63.90;;;;;;4951987;28;20030;-82
2022/06/15 03:54:43;;;;;;;2.67;1.02;;;21.50;63.40;;;;;;4946840;28;20047;-81
2022/06/15 03:57:15;;;;;;;2.15;1.17;;;21.60;63.30;;;;;;4951079;28;20030;-81
2022/06/15 03:59:43;;;;;;;2.10;0.90;;;21.70;63.60;;;;;;4930960;28;20046;-81
2022/06/15 04:02:28;;;;;;;2.70;1.02;;;21.80;62.30;;;;;;4964467;28;20048;-81
2022/06/15 04:04:57;;;;;;;4.82;1.55;;;21.70;61.80;;;;;;4961018;28;20066;-81
2022/06/15 04:10:13;;;;;;;2.97;1.15;;;21.70;62.60;;;;;;4968230;28;20031;-81
2022/06/15 04:12:42;;;;;;;2.22;1.20;;;21.80;62.90;;;;;;4964841;28;20035;-81
2022/06/15 04:15:09;;;;;;;4.43;1.38;;;22.10;62.70;;;;;;4934503;28;20085;-81
2022/06/15 04:17:39;;;;;;;3.90;1.10;;;22.10;61.50;;;;;;4949611;28;20117;-81
2022/06/15 04:20:33;;;;;;;6.15;1.15;;;22.30;61.00;;;;;;4968537;28;20031;-83
2022/06/15 04:23:12;;;;;;;3.13;0.98;;;22.30;60.90;;;;;;4932208;28;20042;-82
2022/06/15 04:25:44;;;;;;;4.07;1.10;;;22.60;61.20;;;;;;4935928;28;20062;-84
2022/06/15 04:28:13;;;;;;;3.42;1.08;;;22.80;61.60;;;;;;4966766;28;20042;-84
2022/06/15 04:30:39;;;;;;;6.03;1.38;;;22.90;59.90;;;;;;4966383;28;20394;-82
2022/06/15 04:33:05;;;;;;;3.55;1.00;;;23.00;58.90;;;;;;4967584;28;20043;-83
2022/06/15 04:35:33;;;;;;;1.23;0.90;;;23.00;58.20;;;;;;4960043;28;20170;-82
2022/06/15 04:38:03;;;;;;;1.98;0.73;;;22.70;58.50;;;;;;4948442;28;20096;-82
2022/06/15 04:40:37;;;;;;;3.10;0.88;;;22.80;59.20;;;;;;4947964;28;20513;-83
2022/06/15 04:43:05;;;;;;;5.03;0.70;;;23.10;58.40;;;;;;4960936;28;20042;-82
2022/06/15 04:45:31;;;;;;;5.82;0.88;;;23.20;57.00;;;;;;4949333;28;20134;-81
2022/06/15 04:48:07;;;;;;;1.45;0.90;;;23.20;57.40;;;;;;4951244;28;20125;-82
2022/06/15 04:50:34;;;;;;;4.55;1.10;;;23.20;57.50;;;;;;4962662;28;20089;-85
2022/06/15 04:53:00;;;;;;;1.40;0.60;;;23.30;57.30;;;;;;4962338;28;20043;-84
2022/06/15 04:55:26;;;;;;;2.38;0.57;;;23.60;56.60;;;;;;4951358;28;20035;-81
2022/06/15 04:57:59;;;;;;;2.75;0.70;;;23.70;55.50;;;;;;4946720;28;20102;-80
2022/06/15 05:00:35;;;;;;;2.78;0.90;;;23.70;56.20;;;;;;4966308;28;20050;-81
2022/06/15 05:03:02;;;;;;;5.07;1.05;;;23.70;56.70;;;;;;4961999;28;20043;-80
2022/06/15 05:05:29;;;;;;;1.10;0.70;;;23.60;54.50;;;;;;4967275;28;20035;-79
2022/06/15 05:07:55;;;;;;;1.60;0.50;;;23.30;55.50;;;;;;4954850;28;20062;-81
2022/06/15 05:10:24;;;;;;;5.18;0.68;;;23.20;56.40;;;;;;4950435;28;20092;-81
2022/06/15 05:12:52;;;;;;;3.33;0.80;;;23.10;56.10;;;;;;4932176;28;20471;-79
2022/06/15 05:15:20;;;;;;;3.40;0.70;;;23.10;56.00;;;;;;4960940;28;20043;-79
2022/06/15 05:17:51;;;;;;;2.58;0.40;;;23.20;56.10;;;;;;4950404;28;20509;-81
2022/06/15 05:20:18;;;;;;;2.25;0.50;;;23.10;56.40;;;;;;4945303;28;20046;-81
2022/06/15 05:22:50;;;;;;;3.70;0.73;;;23.10;56.00;;;;;;4933548;28;20086;-85
2022/06/15 05:25:17;;;;;;;1.65;0.60;;;23.10;57.00;;;;;;4946271;28;20377;-84
2022/06/15 05:27:43;;;;;;;1.92;0.95;;;23.20;57.30;;;;;;4961526;28;20042;-83
2022/06/15 05:30:11;;;;;;;3.90;0.70;;;23.20;56.30;;;;;;4966457;28;20047;-84
2022/06/15 05:32:37;;;;;;;3.30;0.80;;;23.50;56.60;;;;;;4947704;28;20028;-85
2022/06/15 05:35:04;;;;;;;2.28;0.52;;;23.40;55.90;;;;;;4963256;28;20039;-86
2022/06/15 05:37:32;;;;;;;4.57;0.98;;;23.30;55.70;;;;;;4949897;28;20088;-76
2022/06/15 05:39:59;;;;;;;1.25;0.50;;;23.20;56.50;;;;;;4945546;28;20131;-76
2022/06/15 05:42:28;;;;;;;2.05;0.90;;;23.10;56.50;;;;;;4964640;28;20449;-75
2022/06/15 05:45:01;;;;;;;3.17;0.60;;;23.30;57.30;;;;;;4963327;28;20457;-76
2022/06/15 05:47:30;;;;;;;3.92;0.80;;;23.80;57.70;;;;;;4961883;28;20030;-75
2022/06/15 05:50:13;;;;;;;3.78;0.65;;;23.80;56.70;;;;;;4962397;28;20050;-75
2022/06/15 05:53:05;;;;;;;0.90;0.55;;;23.90;56.00;;;;;;4961052;28;20037;-77
2022/06/15 05:55:32;;;;;;;4.25;0.82;;;23.60;55.40;;;;;;4964393;28;20126;-75
2022/06/15 05:57:57;;;;;;;5.25;0.90;;;23.30;56.00;;;;;;4958320;28;20126;-77
2022/06/15 06:00:25;;;;;;;1.30;0.70;;;23.10;56.30;;;;;;4961506;28;20043;-79
2022/06/15 06:02:52;;;;;;;2.97;0.90;;;23.20;57.60;;;;;;4966077;28;20039;-77
2022/06/15 06:05:18;;;;;;;4.20;0.88;;;23.50;57.10;;;;;;4960580;28;20368;-82
2022/06/15 06:07:44;;;;;;;6.18;1.00;;;23.70;55.80;;;;;;4948466;28;20082;-77
2022/06/15 06:11:49;;;;;;;3.70;1.02;;;23.40;57.80;;;;;;5108862;27;20109;-79
2022/06/15 06:14:15;;;;;;;3.53;1.05;;;23.20;56.90;;;;;;5069666;28;20534;-85
2022/06/15 06:16:41;;;;;;;2.85;0.73;;;23.10;57.90;;;;;;5080728;28;20036;-86
2022/06/15 06:19:07;;;;;;;6.75;1.30;;;23.10;58.90;;;;;;5088062;27;20066;-87
2022/06/15 06:21:32;;;;;;;2.05;0.60;;;23.10;59.70;;;;;;5086113;28;20123;-77
2022/06/15 06:23:58;;;;;;;2.90;0.93;;;22.90;57.60;;;;;;5086296;27;20036;-77
2022/06/15 06:26:31;;;;;;;1.80;0.90;;;22.80;57.90;;;;;;5088116;28;20105;-76
2022/06/15 06:28:57;;;;;;;2.63;0.60;;;22.60;58.30;;;;;;5086596;28;20040;-77
2022/06/15 06:31:24;;;;;;;3.80;0.90;;;22.50;57.50;;;;;;5086380;28;20427;-76
2022/06/15 06:33:50;;;;;;;2.17;0.85;;;22.40;58.00;;;;;;5085532;28;20060;-78
2022/06/15 06:36:29;;;;;;;1.17;0.47;;;22.30;59.70;;;;;;5087581;27;20077;-78
2022/06/15 06:38:55;;;;;;;2.22;0.70;;;22.20;57.80;;;;;;5088730;28;20028;-78
2022/06/15 06:41:24;;;;;;;2.90;0.70;;;22.10;57.90;;;;;;5067440;28;20036;-78
2022/06/15 06:43:51;;;;;;;2.20;0.70;;;22.20;59.30;;;;;;5102278;28;20036;-78
2022/06/15 06:46:17;;;;;;;2.63;0.55;;;22.30;58.20;;;;;;5084820;28;20551;-77
2022/06/15 06:48:44;;;;;;;4.43;0.55;;;22.20;57.50;;;;;;5081652;28;20032;-77
2022/06/15 06:51:10;;;;;;;3.03;0.55;;;22.20;56.90;;;;;;5081157;27;20043;-77
2022/06/15 06:53:36;;;;;;;2.75;0.70;;;22.20;57.90;;;;;;5063846;28;20442;-77
2022/06/15 06:56:07;;;;;;;1.95;0.57;;;22.40;58.10;;;;;;5081016;28;20395;-77
2022/06/15 06:58:34;;;;;;;1.23;0.50;;;22.60;57.50;;;;;;5081785;28;20038;-75
2022/06/15 07:01:00;;;;;;;4.65;0.60;;;22.70;57.60;;;;;;5080119;27;20090;-77
2022/06/15 07:03:26;;;;;;;1.42;0.77;;;22.60;56.80;;;;;;5080781;28;20040;-75
2022/06/15 07:05:59;;;;;;;3.60;0.65;;;22.60;56.50;;;;;;5080508;28;20039;-77
2022/06/15 07:08:26;;;;;;;1.05;0.60;;;22.80;57.90;;;;;;5081606;28;20077;-75
2022/06/15 07:10:52;;;;;;;3.67;0.57;;;23.10;57.50;;;;;;5080158;28;20071;-76
2022/06/15 07:13:17;;;;;;;2.90;0.57;;;23.30;57.20;;;;;;5081096;28;20474;-76
2022/06/15 07:15:43;;;;;;;2.80;1.08;;;23.60;56.70;;;;;;5081174;27;20032;-77
2022/06/15 07:18:09;;;;;;;2.10;0.70;;;23.60;56.10;;;;;;5080268;27;20028;-75
2022/06/15 07:20:36;;;;;;;1.73;0.50;;;23.40;55.20;;;;;;5080905;28;20043;-77
2022/06/15 07:23:01;;;;;;;2.15;0.45;;;23.20;56.10;;;;;;5068559;28;20485;-76
2022/06/15 07:25:28;;;;;;;4.10;0.52;;;23.20;56.10;;;;;;5067065;28;20155;-75
2022/06/15 07:27:54;;;;;;;2.88;0.70;;;23.20;56.40;;;;;;5068404;28;20040;-76
2022/06/15 07:30:24;;;;;;;5.55;0.80;;;23.30;56.90;;;;;;5067222;28;20527;-77
2022/06/15 07:32:50;;;;;;;4.05;0.50;;;23.30;57.00;;;;;;5061425;28;20037;-75
2022/06/15 07:35:27;;;;;;;2.45;0.50;;;23.10;55.30;;;;;;5069860;28;20036;-76
2022/06/15 07:37:55;;;;;;;1.75;0.80;;;23.20;56.80;;;;;;5069810;28;20089;-75
2022/06/15 07:40:23;;;;;;;5.95;0.88;;;23.40;57.30;;;;;;5053118;28;20033;-76
2022/06/15 07:42:50;;;;;;;4.00;0.63;;;23.20;55.60;;;;;;5070869;28;20028;-75
2022/06/15 07:45:19;;;;;;;5.57;0.55;;;23.20;57.00;;;;;;5049771;28;20085;-77
2022/06/15 07:50:30;;;;;;;3.78;0.60;;;23.30;56.90;;;;;;5059936;28;20036;-74
2022/06/15 07:52:56;;;;;;;3.13;0.57;;;23.30;56.20;;;;;;5066902;28;20509;-78
2022/06/15 07:55:29;;;;;;;2.13;0.60;;;23.20;55.90;;;;;;5066562;28;20059;-76
2022/06/15 07:57:55;;;;;;;3.97;0.65;;;23.20;56.80;;;;;;5066244;28;20051;-77
2022/06/15 08:00:23;;;;;;;2.95;0.43;;;23.30;56.60;;;;;;5066940;28;20048;-74
2022/06/15 08:02:49;;;;;;;1.60;0.60;;;23.40;56.30;;;;;;5066881;28;20032;-76
2022/06/15 08:05:17;;;;;;;1.58;0.60;;;23.40;55.70;;;;;;5065340;28;20056;-75
2022/06/15 08:07:44;;;;;;;2.03;0.70;;;23.20;55.30;;;;;;5065605;28;20530;-77
2022/06/15 08:10:13;;;;;;;5.43;0.73;;;23.20;55.80;;;;;;5066205;28;20048;-75
2022/06/15 08:12:40;;;;;;;1.98;0.60;;;23.10;56.40;;;;;;5067082;28;20036;-85
2022/06/15 08:15:07;;;;;;;0.75;0.47;;;23.20;56.40;;;;;;5067281;28;20840;-86
2022/06/15 08:17:42;;;;;;;1.02;0.70;;;22.90;54.80;;;;;;5049896;28;20417;-82
2022/06/15 08:20:20;;;;;;;1.20;0.50;;;22.80;57.10;;;;;;5066445;28;20032;-82
2022/06/15 08:22:50;;;;;;;5.78;0.65;;;22.70;55.90;;;;;;5048791;28;20431;-83
2022/06/15 08:25:22;;;;;;;2.55;0.73;;;22.70;56.50;;;;;;5066536;28;20059;-88
2022/06/15 08:27:48;;;;;;;0.88;0.55;;;22.80;56.50;;;;;;5066005;28;20454;-85
2022/06/15 08:30:15;;;;;;;3.90;0.70;;;22.50;55.90;;;;;;5065882;28;20486;-89
2022/06/15 08:32:43;;;;;;;3.35;0.80;;;22.50;56.30;;;;;;5065690;28;20028;-83
2022/06/15 08:35:09;;;;;;;2.78;0.80;;;22.40;56.00;;;;;;5064164;28;20035;-83
2022/06/15 08:37:36;;;;;;;1.60;0.68;;;22.50;57.90;;;;;;5049899;28;20395;-87
2022/06/15 08:40:03;;;;;;;3.97;0.85;;;22.50;56.80;;;;;;5054804;28;20046;-90
2022/06/15 08:42:41;;;;;;;4.93;0.50;;;22.50;57.30;;;;;;5071279;28;20120;-88
2022/06/15 08:45:07;;;;;;;6.72;1.00;;;22.40;56.90;;;;;;5071006;28;20056;-86
2022/06/15 08:47:48;;;;;;;4.28;0.73;;;22.30;56.50;;;;;;5071016;28;20078;-80
2022/06/15 08:50:26;;;;;;;1.25;0.68;;;22.30;57.20;;;;;;5071312;28;20372;-83
2022/06/15 08:53:14;;;;;;;1.38;0.70;;;22.20;57.00;;;;;;5085442;28;20052;-84
2022/06/15 08:55:49;;;;;;;1.75;1.13;;;22.20;57.50;;;;;;5070189;28;20422;-84
2022/06/15 08:58:28;;;;;;;5.88;1.30;;;22.20;57.60;;;;;;5070464;28;20033;-84
2022/06/15 09:01:01;;;;;;;4.40;1.50;;;22.20;57.90;;;;;;5071735;28;20099;-82
2022/06/15 09:03:35;;;;;;;4.13;1.30;;;22.20;57.50;;;;;;5053809;28;20033;-82
2022/06/15 09:06:24;;;;;;;1.55;1.23;;;22.10;57.30;;;;;;5082154;28;20428;-82
2022/06/15 09:09:13;;;;;;;2.28;1.10;;;22.00;57.20;;;;;;5071282;28;20127;-83
2022/06/15 09:12:49;;;;;;;2.13;0.93;;;22.00;57.80;;;;;;5049547;28;20059;-82
2022/06/15 09:15:05;;;;;;;3.33;1.15;;;22.00;56.50;;;;;;5053497;28;20524;-81
2022/06/15 09:17:33;;;;;;;3.83;1.20;;;22.00;57.90;;;;;;5032391;28;20037;-81
2022/06/15 09:20:05;;;;;;;6.50;1.10;;;22.00;57.60;;;;;;5052224;28;20523;-81
2022/06/15 09:22:56;;;;;;;2.03;1.20;;;22.00;57.30;;;;;;5036822;28;20486;-81
2022/06/15 09:25:35;;;;;;;5.55;1.30;;;22.00;58.50;;;;;;5063052;28;20048;-81
2022/06/15 09:28:25;;;;;;;4.50;1.08;;;22.00;57.30;;;;;;5068401;28;20539;-82
2022/06/15 09:30:54;;;;;;;3.72;0.93;;;22.00;58.10;;;;;;5030074;28;20049;-79
2022/06/15 09:34:01;;;;;;;4.22;1.00;;;22.10;57.90;;;;;;5050491;28;20051;-80
2022/06/15 09:36:35;;;;;;;3.35;0.88;;;22.20;56.90;;;;;;4983590;28;20048;-83
2022/06/15 09:39:02;;;;;;;4.28;0.95;;;22.10;57.50;;;;;;4983841;28;20046;-83
2022/06/15 09:42:00;;;;;;;4.03;0.98;;;22.10;57.30;;;;;;4985544;28;20026;-85
2022/06/15 09:44:50;;;;;;;5.82;0.70;;;22.10;56.40;;;;;;4963114;28;20042;-83
2022/06/15 09:47:47;;;;;;;2.33;0.70;;;22.00;57.20;;;;;;4970492;28;20058;-90
2022/06/15 09:50:40;;;;;;;1.90;0.70;;;22.00;56.20;;;;;;4963784;28;20371;-89
2022/06/15 09:53:29;;;;;;;2.38;0.60;;;22.00;57.00;;;;;;4961302;28;20848;-88
2022/06/15 09:56:00;;;;;;;4.43;0.50;;;22.00;57.30;;;;;;4992366;28;20524;-89
2022/06/15 09:58:32;;;;;;;2.35;0.68;;;21.90;58.20;;;;;;4974176;28;20030;-88
2022/06/15 10:00:58;;;;;;;2.97;0.75;;;21.90;57.60;;;;;;4988854;28;20030;-88
2022/06/15 10:03:29;;;;;;;1.13;0.88;;;21.80;57.80;;;;;;4970338;28;20034;-88
2022/06/15 10:06:39;;;;;;;6.93;1.30;;;21.80;58.30;;;;;;4971514;28;20133;-89
2022/06/15 10:09:08;;;;;;;3.10;0.50;;;21.80;58.60;;;;;;4950262;28;20031;-88
2022/06/15 10:11:40;;;;;;;3.10;0.90;;;21.80;58.20;;;;;;4980481;28;20075;-87
2022/06/15 10:14:17;;;;;;;3.42;0.80;;;21.90;59.50;;;;;;5053152;28;20036;-88
2022/06/15 10:16:51;;;;;;;3.08;0.88;;;22.00;58.90;;;;;;5076261;28;20098;-85
2022/06/15 10:19:17;;;;;;;3.53;0.82;;;22.00;58.60;;;;;;5061488;28;20036;-87
2022/06/15 10:21:51;;;;;;;3.83;0.98;;;22.10;59.10;;;;;;5066994;28;20028;-85
2022/06/15 10:24:31;;;;;;;2.40;0.77;;;22.00;59.10;;;;;;5068728;28;20028;-87
2022/06/15 10:27:16;;;;;;;2.08;0.70;;;22.00;58.70;;;;;;5036822;28;20578;-85
2022/06/15 10:29:44;;;;;;;3.63;0.80;;;22.00;57.50;;;;;;5067113;28;20047;-83
2022/06/15 10:32:09;;;;;;;0.60;0.60;;;21.90;57.90;;;;;;5059037;28;20579;-88
2022/06/15 10:34:53;;;;;;;1.77;0.93;;;21.90;57.90;;;;;;5063479;28;20060;-87
2022/06/15 10:37:20;;;;;;;3.53;0.90;;;21.80;57.80;;;;;;5047767;28;20081;-87
2022/06/15 10:39:49;;;;;;;1.95;0.52;;;21.90;57.80;;;;;;5047778;28;20044;-87
2022/06/15 10:42:30;;;;;;;3.00;0.73;;;21.80;58.50;;;;;;5063029;28;20033;-88
2022/06/15 10:45:07;;;;;;;2.47;0.93;;;21.90;58.90;;;;;;5064268;28;20503;-87
2022/06/15 10:47:39;;;;;;;4.50;0.73;;;21.80;58.90;;;;;;5064291;28;20028;-87
2022/06/15 10:50:17;;;;;;;2.78;0.50;;;21.80;58.10;;;;;;5047240;28;20119;-88
2022/06/15 10:52:52;;;;;;;1.80;0.52;;;21.90;58.60;;;;;;5064283;28;20128;-87
2022/06/15 11:04:50;;;;;;;4.25;0.80;;;22.00;57.20;;;;;;4972844;28;20045;-90
2022/06/15 11:07:16;;;;;;;4.03;1.05;;;21.80;57.10;;;;;;4987834;28;20036;-92
2022/06/15 11:09:55;;;;;;;5.43;1.00;;;21.80;58.30;;;;;;4988183;28;20050;-90
2022/06/15 11:12:35;;;;;;;4.07;0.75;;;21.90;58.10;;;;;;4955039;28;20045;-87
2022/06/15 11:15:13;;;;;;;4.85;0.80;;;21.90;57.20;;;;;;4999630;28;20042;-85
2022/06/15 11:18:06;;;;;;;2.15;0.70;;;21.90;57.60;;;;;;4987563;28;20060;-87
2022/06/15 11:20:48;;;;;;;3.30;0.70;;;21.90;58.70;;;;;;4972259;28;20525;-86
2022/06/15 11:23:28;;;;;;;2.88;1.00;;;21.90;57.10;;;;;;4975296;28;20050;-87
2022/06/15 11:25:59;;;;;;;2.60;0.85;;;21.80;57.30;;;;;;4975926;28;20549;-86
2022/06/15 11:28:37;;;;;;;2.17;1.20;;;21.80;57.90;;;;;;4960353;28;20042;-86
2022/06/15 11:31:13;;;;;;;3.95;0.77;;;21.90;58.40;;;;;;5002774;28;20072;-87
2022/06/15 11:33:53;;;;;;;1.33;0.82;;;21.70;56.40;;;;;;5038513;28;20040;-91
2022/06/15 11:36:52;;;;;;;3.80;0.70;;;21.70;57.50;;;;;;5076213;28;20067;-87
2022/06/15 11:39:41;;;;;;;2.05;0.50;;;21.60;57.90;;;;;;5078637;28;20105;-90
2022/06/15 11:42:10;;;;;;;3.30;1.00;;;21.60;58.80;;;;;;5070704;28;20064;-84
2022/06/15 11:44:43;;;;;;;3.90;0.80;;;21.60;58.60;;;;;;5043573;28;20044;-84
2022/06/15 11:47:33;;;;;;;4.43;1.02;;;21.60;59.70;;;;;;5048881;28;20407;-82
2022/06/15 11:50:23;;;;;;;3.08;0.65;;;21.70;57.80;;;;;;5067460;28;20037;-84
2022/06/15 11:53:28;;;;;;;3.58;0.80;;;21.60;58.20;;;;;;5067339;28;20075;-82
2022/06/15 11:55:57;;;;;;;1.85;0.70;;;21.60;58.60;;;;;;5064220;28;20063;-84
2022/06/15 11:58:26;;;;;;;3.10;0.85;;;21.60;58.40;;;;;;5066553;28;20033;-84
2022/06/15 12:01:09;;;;;;;5.22;1.10;;;21.70;58.20;;;;;;5048601;28;20033;-85
2022/06/15 12:04:05;;;;;;;5.30;0.75;;;21.70;58.30;;;;;;5065479;28;20454;-82
2022/06/15 12:06:38;;;;;;;2.83;1.00;;;21.70;57.50;;;;;;5066752;28;20162;-82
2022/06/15 12:09:27;;;;;;;5.00;1.08;;;21.70;57.80;;;;;;5067552;28;20514;-83
2022/06/15 12:12:39;;;;;;;3.28;1.00;;;21.70;58.50;;;;;;4969311;28;20051;-83
2022/06/15 12:15:05;;;;;;;3.13;0.90;;;21.70;58.20;;;;;;4967112;28;20085;-84
2022/06/15 12:17:50;;;;;;;7.53;0.95;;;21.60;58.60;;;;;;4969160;28;20046;-82
2022/06/15 12:20:36;;;;;;;6.63;1.02;;;21.60;58.40;;;;;;4981496;28;20034;-82
2022/06/15 12:23:13;;;;;;;;;;;21.50;58.60;;;;;;4980834;28;20153;-81
2022/06/15 12:25:46;;;;;;;3.15;1.20;;;21.50;59.00;;;;;;4985192;28;19956;-82
2022/06/15 12:28:38;;;;;;;4.43;1.05;;;21.50;58.30;;;;;;4980019;28;20505;-82
2022/06/15 12:31:09;;;;;;;5.07;1.10;;;21.50;57.90;;;;;;4968502;28;20541;-82
2022/06/15 12:34:04;;;;;;;2.58;0.70;;;21.60;58.50;;;;;;4967286;28;20129;-81
2022/06/15 12:36:45;;;;;;;2.50;1.08;;;21.50;58.20;;;;;;4972351;28;20034;-82
2022/06/15 12:39:32;;;;;;;4.82;1.15;;;21.60;59.10;;;;;;4980834;28;20286;-81
2022/06/15 12:42:11;;;;;;;2.95;0.90;;;21.60;58.60;;;;;;4981145;28;20038;-81
2022/06/15 12:45:14;;;;;;;3.83;0.70;;;21.60;58.30;;;;;;4948806;28;20097;-81
2022/06/15 12:47:42;;;;;;;3.47;1.20;;;21.60;58.50;;;;;;4967702;28;20596;-81
2022/06/15 12:50:39;;;;;;;2.65;1.27;;;21.50;59.70;;;;;;5058554;28;20419;-82
2022/06/15 12:53:15;;;;;;;4.75;1.30;;;21.50;58.40;;;;;;5063947;28;20150;-83
2022/06/15 12:56:12;;;;;;;1.77;1.08;;;21.50;59.90;;;;;;5064855;28;20119;-81
2022/06/15 12:58:57;;;;;;;3.88;1.23;;;21.60;60.30;;;;;;5065901;28;20066;-81
2022/06/15 13:01:31;;;;;;;5.75;1.08;;;21.60;59.70;;;;;;5058612;28;20037;-81
2022/06/15 13:04:34;;;;;;;4.22;0.70;;;21.50;58.30;;;;;;5047584;28;20414;-82
2022/06/15 13:07:29;;;;;;;4.28;1.08;;;21.50;58.90;;;;;;5098393;28;20035;-82
2022/06/15 13:10:07;;;;;;;2.72;0.93;;;21.40;59.40;;;;;;5065331;28;20052;-83
2022/06/15 13:12:47;;;;;;;3.88;1.20;;;21.40;58.70;;;;;;5065094;28;20484;-85
2022/06/15 13:15:29;;;;;;;8.77;1.42;;;21.40;59.20;;;;;;5081867;28;20151;-84
2022/06/15 13:18:13;;;;;;;1.55;1.25;;;21.50;59.30;;;;;;5069376;28;20028;-84
2022/06/15 13:20:48;;;;;;;4.20;0.90;;;21.60;59.70;;;;;;5045563;28;20037;-84
2022/06/15 13:23:24;;;;;;;6.13;0.77;;;21.60;59.20;;;;;;5068004;28;20036;-84
2022/06/15 13:25:56;;;;;;;2.25;0.88;;;21.60;59.40;;;;;;5053093;28;20565;-84
2022/06/15 13:28:30;;;;;;;5.97;1.02;;;21.50;59.40;;;;;;5075221;28;20041;-82
2022/06/15 13:31:00;;;;;;;1.20;0.73;;;21.50;59.80;;;;;;5068545;28;20040;-83
2022/06/15 13:33:51;;;;;;;3.80;1.33;;;21.50;59.90;;;;;;5049245;28;20036;-82
2022/06/15 13:36:20;;;;;;;3.60;0.90;;;21.60;61.00;;;;;;5081263;28;20398;-82
2022/06/15 13:38:47;;;;;;;3.90;1.17;;;21.60;60.30;;;;;;5082672;28;20043;-84
2022/06/15 13:41:24;;;;;;;4.85;1.23;;;21.70;60.00;;;;;;5070656;28;20052;-84